Time;durP1;ratioP1;P1;durP2;ratioP2;P2;SDS_P1;SDS_P2;PMS_P1;PMS_P2;Temp;Humidity;BMP_temperature;BMP_pressure;BME280_temperature;BME280_humidity;BME280_pressure;Samples;Min_cycle;Max_cycle;Signal;HPM_P1;HPM_P2
2022/03/17 00:00:16;;;;;;;49.00;25.37;;;9.40;85.00;;;;;;5105848;28;20665;-77
2022/03/17 00:02:42;;;;;;;53.10;27.80;;;9.40;85.00;;;;;;5106689;28;20464;-76
2022/03/17 00:05:10;;;;;;;50.00;26.73;;;9.40;84.90;;;;;;5106043;28;20426;-77
2022/03/17 00:07:43;;;;;;;52.03;26.70;;;9.40;85.00;;;;;;5103815;28;20836;-77
2022/03/17 00:10:13;;;;;;;51.10;25.90;;;9.40;85.20;;;;;;5097817;28;20429;-77
2022/03/17 00:12:41;;;;;;;54.90;29.03;;;9.30;85.20;;;;;;5098393;28;20409;-76
2022/03/17 00:15:07;;;;;;;55.40;28.23;;;9.30;85.30;;;;;;5098188;28;20423;-77
2022/03/17 00:17:32;;;;;;;51.93;26.70;;;9.30;85.20;;;;;;5098953;28;20461;-76
2022/03/17 00:19:58;;;;;;;47.23;25.57;;;9.30;85.20;;;;;;5081655;28;20444;-76
2022/03/17 00:22:24;;;;;;;47.63;24.67;;;9.30;85.30;;;;;;5097734;28;20241;-77
2022/03/17 00:24:50;;;;;;;53.40;26.43;;;9.30;85.50;;;;;;5095335;28;20191;-77
2022/03/17 00:27:15;;;;;;;54.67;27.77;;;9.30;85.20;;;;;;5094358;28;20180;-76
2022/03/17 00:29:41;;;;;;;52.13;26.67;;;9.20;85.50;;;;;;5080279;28;20194;-75
2022/03/17 00:32:08;;;;;;;56.23;26.97;;;9.20;85.70;;;;;;5095869;28;20214;-75
2022/03/17 00:35:35;;;;;;;42.73;23.80;;;9.20;85.60;;;;;;5094760;28;20206;-75
2022/03/17 00:37:23;;;;;;;47.93;25.17;;;9.20;85.60;;;;;;5093087;28;20417;-77
2022/03/17 00:39:49;;;;;;;52.30;26.27;;;9.10;85.90;;;;;;5093673;28;20421;-76
2022/03/17 00:42:15;;;;;;;50.00;24.73;;;9.10;86.00;;;;;;5093797;28;20413;-75
2022/03/17 00:44:41;;;;;;;49.20;25.27;;;9.10;86.00;;;;;;5094013;28;20782;-76
2022/03/17 00:47:07;;;;;;;52.17;26.17;;;9.10;85.70;;;;;;5081125;28;20432;-75
2022/03/17 00:49:33;;;;;;;50.27;26.30;;;9.10;85.20;;;;;;5075252;28;20449;-73
2022/03/17 00:51:59;;;;;;;46.47;24.30;;;9.10;85.00;;;;;;5093679;28;20203;-79
2022/03/17 00:54:26;;;;;;;48.83;23.93;;;9.00;85.00;;;;;;5094331;28;20180;-78
2022/03/17 00:56:52;;;;;;;50.93;24.57;;;9.00;85.30;;;;;;5093376;28;20421;-75
2022/03/17 00:59:18;;;;;;;51.03;25.50;;;9.00;85.30;;;;;;5075883;28;20856;-76
2022/03/17 01:01:44;;;;;;;46.53;23.77;;;9.00;85.30;;;;;;5094865;28;20441;-76
2022/03/17 01:04:10;;;;;;;47.27;24.30;;;8.90;85.60;;;;;;5094950;28;20497;-75
2022/03/17 01:06:36;;;;;;;51.20;26.03;;;8.90;85.60;;;;;;5076357;28;20451;-77
2022/03/17 01:09:02;;;;;;;51.23;26.63;;;8.80;85.60;;;;;;5094249;28;20827;-76
2022/03/17 01:11:27;;;;;;;53.37;26.40;;;8.80;85.70;;;;;;5095162;28;20205;-76
2022/03/17 01:13:53;;;;;;;52.03;26.87;;;8.80;85.90;;;;;;5095153;28;20457;-76
2022/03/17 01:16:19;;;;;;;49.90;25.30;;;8.80;85.90;;;;;;5093727;28;20179;-76
2022/03/17 01:18:44;;;;;;;48.03;25.57;;;8.70;85.90;;;;;;5093525;28;20608;-76
2022/03/17 01:21:10;;;;;;;55.67;27.20;;;8.70;86.00;;;;;;5094598;28;20195;-75
2022/03/17 01:23:36;;;;;;;50.27;24.60;;;8.70;86.20;;;;;;5078154;28;20186;-77
2022/03/17 01:26:03;;;;;;;54.73;24.83;;;8.70;86.30;;;;;;5079811;28;20559;-76
2022/03/17 01:28:28;;;;;;;48.73;24.10;;;8.80;86.20;;;;;;5093633;28;20435;-76
2022/03/17 01:30:54;;;;;;;46.07;24.13;;;8.80;86.20;;;;;;5094452;28;20543;-78
2022/03/17 01:33:20;;;;;;;53.03;25.83;;;8.70;86.50;;;;;;5094316;28;20219;-78
2022/03/17 01:35:46;;;;;;;58.13;28.00;;;8.80;86.20;;;;;;5093791;28;20183;-76
2022/03/17 01:38:11;;;;;;;50.73;25.93;;;8.70;86.30;;;;;;5092714;28;20545;-78
2022/03/17 01:40:37;;;;;;;60.17;27.60;;;8.70;86.50;;;;;;5093475;28;20206;-78
2022/03/17 01:43:03;;;;;;;50.80;25.07;;;8.70;86.30;;;;;;5093842;28;20186;-78
2022/03/17 01:45:29;;;;;;;50.53;25.50;;;8.70;86.00;;;;;;5093186;28;20224;-77
2022/03/17 01:47:55;;;;;;;50.77;25.93;;;8.60;86.30;;;;;;5095378;28;20206;-77
2022/03/17 01:50:21;;;;;;;54.83;27.67;;;8.60;86.30;;;;;;5096713;28;20210;-78
2022/03/17 01:52:47;;;;;;;52.47;25.50;;;8.60;86.30;;;;;;5093605;28;20462;-75
2022/03/17 01:55:17;;;;;;;55.90;26.47;;;8.60;86.30;;;;;;5091115;28;20425;-77
2022/03/17 01:57:43;;;;;;;49.37;24.73;;;8.60;86.60;;;;;;5095279;28;20460;-76
2022/03/17 02:00:13;;;;;;;54.43;26.20;;;8.60;86.60;;;;;;5103580;28;20418;-77
2022/03/17 02:02:41;;;;;;;53.67;26.30;;;8.60;86.00;;;;;;5084116;28;20489;-78
2022/03/17 02:05:07;;;;;;;51.00;26.30;;;8.50;86.50;;;;;;5090461;28;21027;-77
2022/03/17 02:07:33;;;;;;;52.80;25.70;;;8.60;86.00;;;;;;5077542;28;20527;-77
2022/03/17 02:09:59;;;;;;;55.97;27.30;;;8.60;85.70;;;;;;5092253;28;20445;-78
2022/03/17 02:15:09;;;;;;;54.57;27.77;;;8.60;85.30;;;;;;5094732;28;20673;-78
2022/03/17 02:17:43;;;;;;;58.93;28.37;;;8.50;84.70;;;;;;5093497;28;20469;-77
2022/03/17 02:20:12;;;;;;;56.27;26.73;;;8.60;84.90;;;;;;5096874;28;20447;-76
2022/03/17 02:22:45;;;;;;;58.93;28.30;;;8.60;84.90;;;;;;5102084;28;20500;-76
2022/03/17 02:27:58;;;;;;;56.87;27.03;;;8.60;84.30;;;;;;5101001;28;20416;-77
2022/03/17 02:30:24;;;;;;;57.50;27.70;;;8.50;84.30;;;;;;5088155;28;20448;-77
2022/03/17 02:32:50;;;;;;;56.47;27.07;;;8.50;84.30;;;;;;5079669;28;20436;-77
2022/03/17 02:35:22;;;;;;;56.87;29.83;;;8.60;84.30;;;;;;5098909;28;20183;-76
2022/03/17 02:37:49;;;;;;;56.70;27.33;;;8.60;84.30;;;;;;5083606;28;20559;-76
2022/03/17 02:40:15;;;;;;;53.53;27.10;;;8.50;84.30;;;;;;5096473;28;20449;-79
2022/03/17 02:42:41;;;;;;;51.17;25.97;;;8.60;84.30;;;;;;5091322;28;20424;-77
2022/03/17 02:45:12;;;;;;;52.70;26.30;;;8.60;84.30;;;;;;5094268;28;20421;-77
2022/03/17 02:47:39;;;;;;;55.60;27.23;;;8.60;84.30;;;;;;5079191;28;20520;-77
2022/03/17 02:50:06;;;;;;;50.13;25.07;;;8.70;84.30;;;;;;5089162;28;21076;-76
2022/03/17 02:52:32;;;;;;;54.57;26.73;;;8.70;84.40;;;;;;5082012;28;20417;-76
2022/03/17 02:54:57;;;;;;;58.47;28.40;;;8.80;84.10;;;;;;5096960;28;20417;-76
2022/03/17 02:57:23;;;;;;;55.57;27.50;;;8.80;83.70;;;;;;5081642;28;20179;-76
2022/03/17 02:59:50;;;;;;;57.60;29.03;;;8.80;83.40;;;;;;5096617;28;20218;-77
2022/03/17 03:02:16;;;;;;;55.10;27.83;;;8.80;83.10;;;;;;5096861;28;20943;-75
2022/03/17 03:04:42;;;;;;;62.07;28.80;;;8.90;82.80;;;;;;5096340;28;20413;-77
2022/03/17 03:07:08;;;;;;;60.37;28.37;;;8.80;82.50;;;;;;5082681;28;20186;-78
2022/03/17 03:09:34;;;;;;;51.67;27.00;;;8.80;82.80;;;;;;5094319;28;20421;-78
2022/03/17 03:12:00;;;;;;;57.40;29.50;;;8.80;83.00;;;;;;5094114;28;20550;-76
2022/03/17 03:14:28;;;;;;;59.70;29.90;;;8.80;82.80;;;;;;5093725;28;20508;-77
2022/03/17 03:16:54;;;;;;;57.67;28.07;;;8.80;82.70;;;;;;5078256;28;20413;-75
2022/03/17 03:19:20;;;;;;;64.50;30.40;;;8.80;82.50;;;;;;5094136;28;20820;-76
2022/03/17 03:21:46;;;;;;;59.30;28.23;;;8.90;82.40;;;;;;5093842;28;20199;-76
2022/03/17 03:24:13;;;;;;;57.83;28.37;;;9.00;82.10;;;;;;5090124;28;20816;-77
2022/03/17 03:26:42;;;;;;;55.03;27.90;;;9.00;81.80;;;;;;5092316;28;20172;-77
2022/03/17 03:29:27;;;;;;;59.30;28.17;;;9.00;81.80;;;;;;5093180;28;20854;-77
2022/03/17 03:31:56;;;;;;;61.60;27.90;;;9.00;81.50;;;;;;5092699;28;20449;-76
2022/03/17 03:34:23;;;;;;;59.23;28.50;;;9.10;80.90;;;;;;5093321;28;20425;-76
2022/03/17 03:39:34;;;;;;;58.73;28.70;;;9.10;80.80;;;;;;5094067;28;20518;-76
2022/03/17 03:42:00;;;;;;;57.40;28.17;;;9.10;80.60;;;;;;5075774;28;20477;-76
2022/03/17 03:44:26;;;;;;;58.70;28.80;;;9.30;79.70;;;;;;5093424;28;20425;-77
2022/03/17 03:46:52;;;;;;;54.33;27.17;;;9.30;79.20;;;;;;5093175;28;20425;-76
2022/03/17 03:49:18;;;;;;;59.33;27.93;;;9.30;79.50;;;;;;5093037;28;20857;-77
2022/03/17 03:51:44;;;;;;;58.53;29.47;;;9.30;80.50;;;;;;5092919;28;20203;-76
2022/03/17 03:54:17;;;;;;;54.00;26.97;;;9.20;80.50;;;;;;5092978;28;20460;-79
2022/03/17 03:56:47;;;;;;;60.33;29.60;;;9.10;81.50;;;;;;5092483;28;20822;-75
2022/03/17 03:59:17;;;;;;;52.73;26.27;;;9.00;82.70;;;;;;5093600;28;20457;-77
2022/03/17 04:01:44;;;;;;;58.17;28.03;;;8.90;83.10;;;;;;5094008;28;20529;-77
2022/03/17 04:04:13;;;;;;;56.47;27.67;;;9.00;83.10;;;;;;5093837;28;20508;-75
2022/03/17 04:06:44;;;;;;;51.43;25.50;;;9.00;83.00;;;;;;5088900;28;20796;-75
2022/03/17 04:09:10;;;;;;;65.30;31.50;;;9.00;83.30;;;;;;5094466;28;20508;-76
2022/03/17 04:11:36;;;;;;;52.60;26.47;;;9.00;83.60;;;;;;5094418;28;20445;-78
2022/03/17 04:14:01;;;;;;;53.37;28.27;;;9.00;83.60;;;;;;5095605;28;20311;-77
2022/03/17 04:16:27;;;;;;;56.03;26.57;;;9.00;83.40;;;;;;5095408;28;20653;-76
2022/03/17 04:18:53;;;;;;;54.50;26.27;;;9.10;83.00;;;;;;5095479;28;20206;-78
2022/03/17 04:21:18;;;;;;;55.17;27.90;;;9.10;82.80;;;;;;5081675;28;20204;-78
2022/03/17 04:23:44;;;;;;;51.83;25.40;;;9.10;82.50;;;;;;5096361;28;20187;-75
2022/03/17 04:26:10;;;;;;;59.67;28.73;;;9.10;82.20;;;;;;5100239;28;20175;-76
2022/03/17 04:28:36;;;;;;;58.17;28.87;;;9.10;82.10;;;;;;5100829;28;20191;-76
2022/03/17 04:31:01;;;;;;;56.83;27.97;;;9.10;81.90;;;;;;5100336;28;20939;-77
2022/03/17 04:33:27;;;;;;;60.13;29.30;;;9.10;82.10;;;;;;5097030;28;20202;-77
2022/03/17 04:35:53;;;;;;;52.50;27.10;;;9.20;82.10;;;;;;5095103;28;20179;-78
2022/03/17 04:38:18;;;;;;;54.73;26.50;;;9.20;82.10;;;;;;5075408;28;20226;-77
2022/03/17 04:40:49;;;;;;;56.10;26.90;;;9.10;82.10;;;;;;5079739;28;20775;-76
2022/03/17 04:43:18;;;;;;;60.30;27.77;;;9.20;81.90;;;;;;5093298;28;20182;-77
2022/03/17 04:45:45;;;;;;;56.23;27.83;;;9.20;81.50;;;;;;5093337;28;20413;-76
2022/03/17 04:48:11;;;;;;;53.40;26.53;;;9.20;81.10;;;;;;5098245;28;20445;-77
2022/03/17 04:50:37;;;;;;;54.50;27.90;;;9.20;79.60;;;;;;5079443;28;20444;-77
2022/03/17 04:55:47;;;;;;;59.60;27.83;;;9.20;78.60;;;;;;5101507;28;20205;-76
2022/03/17 04:58:13;;;;;;;57.63;28.50;;;9.20;78.30;;;;;;5103662;28;20490;-75
2022/03/17 05:00:41;;;;;;;58.67;28.23;;;9.20;79.00;;;;;;5105391;28;20267;-77
2022/03/17 05:03:10;;;;;;;55.10;26.73;;;9.20;80.00;;;;;;5109184;28;20401;-77
2022/03/17 05:05:36;;;;;;;54.00;27.47;;;9.20;80.20;;;;;;5111841;28;20413;-77
2022/03/17 05:08:03;;;;;;;58.37;28.30;;;9.20;80.00;;;;;;5108732;28;20405;-77
2022/03/17 05:10:29;;;;;;;53.80;26.20;;;9.20;79.90;;;;;;5108251;28;20199;-76
2022/03/17 05:12:56;;;;;;;55.60;27.67;;;9.20;79.90;;;;;;5100830;28;20428;-78
2022/03/17 05:15:23;;;;;;;56.40;28.70;;;9.20;79.90;;;;;;5100644;28;20452;-75
2022/03/17 05:17:48;;;;;;;51.70;25.10;;;9.20;80.00;;;;;;5102421;28;20630;-76
2022/03/17 05:20:14;;;;;;;55.83;28.47;;;9.20;80.00;;;;;;5108440;28;20437;-75
2022/03/17 05:22:41;;;;;;;56.30;28.60;;;9.20;79.50;;;;;;5114138;28;20251;-76
2022/03/17 05:25:08;;;;;;;61.47;28.10;;;9.20;78.90;;;;;;5114926;28;20432;-76
2022/03/17 05:27:39;;;;;;;53.00;26.80;;;9.20;78.30;;;;;;5110388;28;20485;-76
2022/03/17 05:30:05;;;;;;;58.53;30.97;;;9.10;78.30;;;;;;5107923;28;20417;-77
2022/03/17 05:32:32;;;;;;;61.47;27.13;;;9.10;78.40;;;;;;5083987;28;20421;-78
2022/03/17 05:34:58;;;;;;;65.53;29.67;;;9.10;78.60;;;;;;5103108;28;20417;-77
2022/03/17 05:37:24;;;;;;;65.57;30.17;;;9.00;78.70;;;;;;5097202;28;20421;-76
2022/03/17 05:39:50;;;;;;;59.47;28.83;;;9.10;78.70;;;;;;5104935;28;20441;-76
2022/03/17 05:42:16;;;;;;;55.83;28.60;;;9.10;78.60;;;;;;5102808;28;20452;-76
2022/03/17 05:44:42;;;;;;;66.00;29.50;;;9.10;78.60;;;;;;5092620;28;20417;-76
2022/03/17 05:47:08;;;;;;;53.47;26.67;;;9.10;78.90;;;;;;5091018;28;20425;-74
2022/03/17 05:49:34;;;;;;;56.53;27.03;;;9.10;79.30;;;;;;5091897;28;20445;-76
2022/03/17 05:51:59;;;;;;;54.80;27.60;;;9.10;79.60;;;;;;5074967;28;20239;-75
2022/03/17 05:54:25;;;;;;;53.23;26.33;;;9.10;80.00;;;;;;5091642;28;20270;-75
2022/03/17 05:56:51;;;;;;;59.30;28.10;;;9.00;80.00;;;;;;5074350;28;20645;-75
2022/03/17 05:59:17;;;;;;;62.53;28.57;;;9.00;80.30;;;;;;5090499;28;20604;-74
2022/03/17 06:01:42;;;;;;;61.07;28.50;;;9.10;80.30;;;;;;5096651;28;20260;-77
2022/03/17 06:04:08;;;;;;;52.90;26.97;;;9.10;80.30;;;;;;5095246;28;20213;-75
2022/03/17 06:06:34;;;;;;;62.33;27.63;;;9.10;80.60;;;;;;5092824;28;20270;-75
2022/03/17 06:09:01;;;;;;;59.77;28.47;;;9.10;80.50;;;;;;5094676;28;20500;-75
2022/03/17 06:11:28;;;;;;;59.10;27.93;;;9.20;80.20;;;;;;5094347;28;20203;-76
2022/03/17 06:13:56;;;;;;;57.70;27.90;;;9.20;79.90;;;;;;5081722;28;20433;-76
2022/03/17 06:16:23;;;;;;;62.10;28.00;;;9.20;79.30;;;;;;5093733;28;20431;-76
2022/03/17 06:18:49;;;;;;;64.27;29.43;;;9.20;79.00;;;;;;5094532;28;20468;-76
2022/03/17 06:21:15;;;;;;;59.40;27.70;;;9.20;79.50;;;;;;5099356;28;20829;-76
2022/03/17 06:23:43;;;;;;;57.90;27.57;;;9.20;79.70;;;;;;5091600;28;20430;-76
2022/03/17 06:26:09;;;;;;;52.33;26.63;;;9.10;79.50;;;;;;5093094;28;20425;-76
2022/03/17 06:28:35;;;;;;;62.33;28.07;;;9.20;79.30;;;;;;5085022;28;20452;-75
2022/03/17 06:31:01;;;;;;;59.93;29.17;;;9.20;79.00;;;;;;5093565;28;20456;-76
2022/03/17 06:33:29;;;;;;;62.03;29.13;;;9.30;78.10;;;;;;5087484;28;20977;-76
2022/03/17 06:35:55;;;;;;;60.60;29.30;;;9.30;78.00;;;;;;5094641;28;20437;-77
2022/03/17 06:38:21;;;;;;;55.07;27.80;;;9.30;78.00;;;;;;5095703;28;20445;-75
2022/03/17 06:40:47;;;;;;;67.40;28.60;;;9.40;77.80;;;;;;5096380;28;20790;-76
2022/03/17 06:43:17;;;;;;;58.60;28.03;;;9.40;77.80;;;;;;5096045;28;20427;-76
2022/03/17 06:45:44;;;;;;;70.10;29.80;;;9.40;78.00;;;;;;5095839;28;20198;-77
2022/03/17 06:48:10;;;;;;;61.43;29.07;;;9.50;77.80;;;;;;5078687;28;20455;-78
2022/03/17 06:50:36;;;;;;;60.97;28.00;;;9.50;77.70;;;;;;5099405;28;20441;-79
2022/03/17 06:53:03;;;;;;;61.13;28.33;;;9.50;77.60;;;;;;5099584;28;20433;-76
2022/03/17 06:55:28;;;;;;;65.63;29.00;;;9.60;77.30;;;;;;5096427;28;20425;-78
2022/03/17 06:57:54;;;;;;;66.10;30.53;;;9.60;77.30;;;;;;5094599;28;20515;-76
2022/03/17 07:00:20;;;;;;;60.40;28.50;;;9.60;77.80;;;;;;5078876;28;20548;-76
2022/03/17 07:02:47;;;;;;;65.23;29.27;;;9.50;79.00;;;;;;5077739;28;20183;-77
2022/03/17 07:05:14;;;;;;;54.93;28.20;;;9.40;79.30;;;;;;5076182;28;20424;-76
2022/03/17 07:07:40;;;;;;;65.77;31.10;;;9.40;79.70;;;;;;5093418;28;20420;-77
2022/03/17 07:10:07;;;;;;;63.90;31.30;;;9.30;80.20;;;;;;5093928;28;20424;-77
2022/03/17 07:12:37;;;;;;;55.97;27.07;;;9.30;80.20;;;;;;5074647;28;20429;-75
2022/03/17 07:15:04;;;;;;;62.43;28.97;;;9.30;80.20;;;;;;5091903;28;20445;-77
2022/03/17 07:17:39;;;;;;;62.93;28.80;;;9.40;80.00;;;;;;5091591;28;20842;-74
2022/03/17 07:20:07;;;;;;;63.33;29.83;;;9.40;80.20;;;;;;5093281;28;20444;-75
2022/03/17 07:22:33;;;;;;;67.77;29.37;;;9.40;80.50;;;;;;5093323;28;20418;-76
2022/03/17 07:24:58;;;;;;;58.47;28.90;;;9.50;80.90;;;;;;5076742;28;20476;-74
2022/03/17 07:27:24;;;;;;;56.40;28.23;;;9.50;81.40;;;;;;5090377;28;21276;-75
2022/03/17 07:29:51;;;;;;;63.70;29.50;;;9.60;80.90;;;;;;5088356;28;20190;-75
2022/03/17 07:32:18;;;;;;;56.27;28.67;;;9.70;81.10;;;;;;5088969;28;20199;-72
2022/03/17 07:34:45;;;;;;;64.63;31.40;;;9.80;81.10;;;;;;5094583;28;20424;-75
2022/03/17 07:37:11;;;;;;;61.57;29.27;;;9.90;80.60;;;;;;5093484;28;20904;-73
2022/03/17 07:39:37;;;;;;;63.70;29.90;;;10.00;79.60;;;;;;5094034;28;20500;-78
2022/03/17 07:42:04;;;;;;;59.40;28.27;;;10.10;79.50;;;;;;5076184;28;20203;-75
2022/03/17 07:44:30;;;;;;;60.93;30.07;;;10.20;79.30;;;;;;5082294;28;20681;-75
2022/03/17 07:46:56;;;;;;;66.93;29.33;;;10.30;79.30;;;;;;5096836;28;20946;-75
2022/03/17 07:49:22;;;;;;;71.40;31.00;;;10.30;79.30;;;;;;5045433;28;1476012;-75
2022/03/17 07:51:48;;;;;;;62.67;28.97;;;10.30;78.40;;;;;;5096597;28;20234;-75
2022/03/17 07:54:14;;;;;;;62.63;28.57;;;10.40;78.30;;;;;;5095351;28;20424;-77
2022/03/17 07:56:41;;;;;;;60.57;30.10;;;10.50;78.10;;;;;;5096703;28;20205;-78
2022/03/17 07:59:08;;;;;;;60.20;28.60;;;10.50;77.70;;;;;;5095299;28;20199;-77
2022/03/17 08:01:34;;;;;;;61.30;29.87;;;10.60;77.40;;;;;;5094290;28;20429;-77
2022/03/17 08:04:00;;;;;;;62.80;28.00;;;10.60;77.10;;;;;;5090823;28;20448;-77
2022/03/17 08:06:26;;;;;;;64.43;31.53;;;10.60;77.60;;;;;;5092828;28;20185;-76
2022/03/17 08:08:52;;;;;;;57.30;27.80;;;10.60;77.60;;;;;;5081768;28;20433;-77
2022/03/17 08:11:17;;;;;;;59.33;28.50;;;10.60;77.40;;;;;;5094847;28;20226;-77
2022/03/17 08:13:44;;;;;;;66.80;30.93;;;10.70;77.10;;;;;;5095203;28;20189;-77
2022/03/17 08:16:10;;;;;;;61.83;29.70;;;10.70;77.40;;;;;;5094266;28;20569;-77
2022/03/17 08:18:37;;;;;;;62.97;32.03;;;10.60;77.10;;;;;;5091976;28;20544;-77
2022/03/17 08:21:03;;;;;;;61.43;29.23;;;10.60;77.40;;;;;;5092788;28;20523;-77
2022/03/17 08:23:29;;;;;;;63.67;29.23;;;10.70;77.40;;;;;;5075885;28;20421;-77
2022/03/17 08:25:55;;;;;;;67.33;29.93;;;10.70;76.80;;;;;;5100119;28;20606;-76
2022/03/17 08:28:20;;;;;;;68.37;30.87;;;10.80;76.20;;;;;;5095982;28;20210;-78
2022/03/17 08:30:47;;;;;;;63.90;30.80;;;10.80;76.20;;;;;;5094801;28;20665;-78
2022/03/17 08:33:18;;;;;;;58.83;31.70;;;10.80;76.10;;;;;;5092555;28;20183;-77
2022/03/17 08:35:45;;;;;;;65.57;30.40;;;10.80;76.40;;;;;;5093637;28;20425;-76
2022/03/17 08:38:11;;;;;;;63.40;31.03;;;10.80;76.40;;;;;;5092265;28;20854;-77
2022/03/17 08:40:38;;;;;;;67.17;30.40;;;10.90;76.80;;;;;;5076798;28;20445;-77
2022/03/17 08:43:06;;;;;;;64.77;31.30;;;10.90;76.50;;;;;;5093614;28;20986;-77
2022/03/17 08:51:01;;;;;;;61.97;29.50;;;10.90;76.40;;;;;;5094167;28;20760;-77
2022/03/17 08:53:26;;;;;;;63.00;28.87;;;11.00;76.20;;;;;;5093892;28;20796;-78
2022/03/17 08:55:52;;;;;;;58.57;29.10;;;11.10;75.50;;;;;;5094942;28;20425;-78
2022/03/17 08:58:18;;;;;;;70.97;33.00;;;11.10;75.70;;;;;;5076356;28;20209;-78
2022/03/17 09:00:44;;;;;;;66.20;31.77;;;11.10;76.10;;;;;;5096040;28;20312;-77
2022/03/17 09:03:10;;;;;;;61.83;30.63;;;11.20;76.20;;;;;;5095621;28;20201;-78
2022/03/17 09:05:37;;;;;;;60.60;28.83;;;11.20;76.10;;;;;;5095367;28;20433;-77
2022/03/17 09:08:04;;;;;;;65.73;30.40;;;11.30;75.50;;;;;;5094112;28;20453;-79
2022/03/17 09:10:31;;;;;;;64.80;30.70;;;11.40;75.10;;;;;;5094010;28;20476;-77
2022/03/17 09:12:57;;;;;;;73.83;33.67;;;11.40;74.60;;;;;;5093783;28;20421;-80
2022/03/17 09:15:24;;;;;;;69.33;31.27;;;11.40;74.90;;;;;;5093198;28;20417;-77
2022/03/17 09:17:50;;;;;;;66.77;31.07;;;11.40;74.80;;;;;;5100469;28;20472;-77
2022/03/17 09:20:16;;;;;;;62.63;29.80;;;11.40;74.60;;;;;;5094418;28;20957;-78
2022/03/17 09:22:43;;;;;;;61.47;29.60;;;11.40;74.60;;;;;;5096627;28;20457;-77
2022/03/17 09:25:09;;;;;;;62.50;29.93;;;11.50;74.60;;;;;;5095917;28;20425;-78
2022/03/17 09:27:35;;;;;;;67.10;31.77;;;11.50;74.30;;;;;;5103680;28;20414;-78
2022/03/17 09:30:01;;;;;;;64.13;30.23;;;11.60;74.00;;;;;;5102997;28;20472;-78
2022/03/17 09:32:26;;;;;;;64.60;31.40;;;11.60;73.90;;;;;;5080708;28;20168;-78
2022/03/17 09:34:52;;;;;;;61.33;30.30;;;11.60;74.20;;;;;;5092767;28;20266;-77
2022/03/17 09:37:19;;;;;;;62.23;30.53;;;11.60;74.20;;;;;;5091480;28;20269;-77
2022/03/17 09:39:48;;;;;;;58.43;27.97;;;11.60;74.30;;;;;;5092170;28;20225;-77
2022/03/17 09:42:19;;;;;;;60.63;28.20;;;11.60;74.50;;;;;;5092130;28;20464;-77
2022/03/17 09:44:47;;;;;;;53.60;26.90;;;11.60;74.80;;;;;;5079143;28;20436;-78
2022/03/17 09:47:20;;;;;;;53.93;28.70;;;11.60;74.80;;;;;;5091640;28;20417;-79
2022/03/17 09:49:48;;;;;;;65.40;28.60;;;11.80;74.60;;;;;;5091395;28;20445;-79
2022/03/17 09:52:17;;;;;;;63.97;29.53;;;11.90;74.00;;;;;;5092236;28;20441;-78
2022/03/17 09:54:44;;;;;;;60.40;29.37;;;12.00;73.60;;;;;;5081295;28;20563;-80
2022/03/17 09:57:10;;;;;;;61.80;29.60;;;12.00;73.20;;;;;;5073896;28;20509;-80
2022/03/17 09:59:36;;;;;;;64.93;29.90;;;12.10;73.30;;;;;;5091832;28;20460;-80
2022/03/17 10:02:03;;;;;;;56.57;28.57;;;12.20;72.90;;;;;;5077486;28;20444;-78
2022/03/17 10:04:32;;;;;;;58.03;29.47;;;12.30;72.40;;;;;;5092654;28;20421;-79
2022/03/17 10:07:00;;;;;;;61.90;30.30;;;12.40;72.30;;;;;;5074587;28;20706;-79
2022/03/17 10:09:29;;;;;;;73.30;34.60;;;12.50;71.80;;;;;;5093629;28;20409;-79
2022/03/17 10:12:03;;;;;;;60.43;30.03;;;12.50;71.80;;;;;;5075150;28;20441;-78
2022/03/17 10:14:46;;;;;;;59.60;29.40;;;12.50;72.60;;;;;;5093474;28;20520;-79
2022/03/17 10:17:37;;;;;;;67.10;29.90;;;12.60;72.30;;;;;;5092004;28;20401;-79
2022/03/17 10:20:22;;;;;;;59.47;28.30;;;12.70;71.80;;;;;;5075233;28;21048;-79
2022/03/17 10:22:57;;;;;;;55.90;27.53;;;12.70;72.00;;;;;;5089555;28;20926;-78
2022/03/17 10:25:24;;;;;;;52.00;29.43;;;12.90;71.40;;;;;;5092575;28;20417;-78
2022/03/17 10:27:54;;;;;;;61.10;30.80;;;12.90;71.40;;;;;;5074093;28;20920;-79
2022/03/17 10:30:30;;;;;;;57.53;27.87;;;13.00;71.00;;;;;;5092690;28;20510;-79
2022/03/17 10:33:15;;;;;;;55.83;27.67;;;13.00;71.30;;;;;;5095720;28;20409;-79
2022/03/17 10:35:49;;;;;;;61.33;29.03;;;13.10;70.70;;;;;;5078627;28;20420;-79
2022/03/17 10:38:16;;;;;;;56.67;28.67;;;13.20;70.40;;;;;;5091983;28;20541;-79
2022/03/17 10:40:44;;;;;;;63.47;29.23;;;13.10;70.70;;;;;;5093911;28;20531;-81
2022/03/17 10:43:24;;;;;;;61.23;30.20;;;13.10;71.00;;;;;;5078071;28;20425;-79
2022/03/17 10:46:11;;;;;;;58.83;28.37;;;13.00;70.80;;;;;;5094020;28;20424;-79
2022/03/17 10:48:57;;;;;;;61.37;29.03;;;12.90;70.80;;;;;;5101935;28;20933;-79
2022/03/17 10:51:30;;;;;;;64.93;28.60;;;13.00;71.10;;;;;;5089609;28;20492;-80
2022/03/17 10:54:10;;;;;;;65.60;31.70;;;13.00;71.10;;;;;;5106482;28;20416;-80
2022/03/17 10:56:38;;;;;;;67.23;30.17;;;13.00;71.30;;;;;;5082027;28;20444;-81
2022/03/17 10:59:05;;;;;;;59.53;29.93;;;12.90;71.30;;;;;;5081200;28;20469;-80
2022/03/17 11:01:44;;;;;;;66.40;31.00;;;12.90;71.40;;;;;;5082101;28;20449;-78
2022/03/17 11:04:11;;;;;;;61.47;29.13;;;12.90;71.60;;;;;;5097818;28;20445;-79
2022/03/17 11:06:38;;;;;;;63.27;28.50;;;12.80;71.70;;;;;;5096431;28;20433;-80
2022/03/17 11:09:08;;;;;;;59.60;28.63;;;12.80;72.00;;;;;;5079436;28;20435;-80
2022/03/17 11:11:37;;;;;;;64.87;31.00;;;12.80;72.00;;;;;;5084186;28;20441;-80
2022/03/17 11:14:09;;;;;;;62.67;30.37;;;12.70;71.80;;;;;;5079100;28;20436;-80
2022/03/17 11:16:50;;;;;;;65.77;33.00;;;12.70;71.70;;;;;;5090783;28;20474;-78
2022/03/17 11:19:19;;;;;;;68.87;32.20;;;12.60;72.10;;;;;;5078806;28;20460;-79
2022/03/17 11:22:01;;;;;;;60.70;29.73;;;12.50;72.90;;;;;;5081014;28;20544;-80
2022/03/17 11:24:26;;;;;;;63.77;30.97;;;12.50;72.70;;;;;;5099672;28;20414;-81
2022/03/17 11:27:15;;;;;;;57.43;28.67;;;12.50;72.90;;;;;;5099588;28;20418;-79
2022/03/17 11:29:47;;;;;;;72.07;29.67;;;12.60;72.90;;;;;;5090933;28;20198;-78
2022/03/17 11:32:31;;;;;;;65.07;29.47;;;12.60;72.30;;;;;;5097266;28;20441;-78
2022/03/17 11:35:09;;;;;;;60.70;28.60;;;12.50;73.00;;;;;;5096338;28;20421;-77
2022/03/17 11:37:35;;;;;;;59.30;28.17;;;12.40;76.20;;;;;;5072767;28;20461;-80
2022/03/17 11:40:04;;;;;;;56.90;26.67;;;12.30;77.80;;;;;;5097279;28;20425;-79
2022/03/17 11:42:47;;;;;;;55.90;26.07;;;12.20;79.20;;;;;;5098566;28;20409;-78
2022/03/17 11:45:15;;;;;;;56.67;27.87;;;12.20;79.50;;;;;;5109013;28;20400;-78
2022/03/17 11:47:56;;;;;;;55.57;27.67;;;12.10;80.00;;;;;;5083199;28;20457;-79
2022/03/17 11:50:40;;;;;;;67.53;28.30;;;12.00;80.50;;;;;;5101172;28;20447;-79
2022/03/17 11:53:12;;;;;;;60.30;27.60;;;11.90;81.50;;;;;;5079443;28;20440;-77
2022/03/17 11:55:48;;;;;;;58.70;26.97;;;11.90;81.80;;;;;;5094756;28;20413;-80
2022/03/17 11:58:39;;;;;;;64.33;29.37;;;11.90;81.90;;;;;;5098462;28;20606;-78
2022/03/17 12:01:12;;;;;;;62.03;28.80;;;11.90;82.40;;;;;;5095254;28;20594;-80
2022/03/17 12:03:44;;;;;;;62.47;29.60;;;11.90;82.20;;;;;;5095491;28;20413;-80
2022/03/17 12:06:14;;;;;;;71.13;30.10;;;11.80;83.00;;;;;;5095533;28;20421;-80
2022/03/17 12:08:42;;;;;;;57.93;27.93;;;11.80;83.40;;;;;;5095763;28;21209;-79
2022/03/17 12:11:10;;;;;;;62.50;30.20;;;11.90;83.40;;;;;;5096651;28;20445;-81
2022/03/17 12:13:36;;;;;;;66.53;30.23;;;11.90;83.80;;;;;;5098230;28;20422;-81
2022/03/17 12:16:06;;;;;;;67.30;31.30;;;11.80;84.00;;;;;;5097581;28;20421;-80
2022/03/17 12:19:01;;;;;;;65.30;32.00;;;11.80;84.10;;;;;;5096791;28;20445;-80
2022/03/17 12:22:07;;;;;;;63.33;29.47;;;11.70;84.30;;;;;;5092802;28;20516;-80
2022/03/17 12:24:41;;;;;;;70.50;33.00;;;11.60;84.90;;;;;;4994198;28;20421;-79
2022/03/17 12:27:19;;;;;;;67.00;31.63;;;11.60;84.90;;;;;;5001855;28;20488;-78
2022/03/17 12:29:48;;;;;;;72.60;29.93;;;11.70;84.70;;;;;;4996161;28;20417;-80
2022/03/17 12:32:22;;;;;;;71.70;31.10;;;11.70;84.60;;;;;;4987255;28;20517;-78
2022/03/17 12:34:49;;;;;;;69.23;28.97;;;11.80;84.00;;;;;;5000352;28;20501;-80
2022/03/17 12:37:17;;;;;;;68.10;28.17;;;12.00;83.30;;;;;;5002945;28;20892;-77
2022/03/17 12:39:52;;;;;;;62.33;30.27;;;12.10;82.80;;;;;;4977894;28;20464;-80
2022/03/17 12:42:28;;;;;;;72.07;32.40;;;12.10;81.80;;;;;;4992446;28;20987;-80
2022/03/17 12:45:04;;;;;;;76.40;31.60;;;12.00;81.50;;;;;;4991121;28;20422;-79
2022/03/17 12:47:37;;;;;;;68.20;32.00;;;12.10;81.80;;;;;;4997837;28;20418;-78
2022/03/17 12:50:12;;;;;;;64.77;29.70;;;12.20;80.80;;;;;;4981549;28;20488;-79
2022/03/17 12:52:41;;;;;;;68.03;31.00;;;12.20;80.80;;;;;;4980535;28;20437;-81
2022/03/17 12:55:09;;;;;;;63.30;30.90;;;12.30;80.90;;;;;;4960797;28;20576;-78